Terminal Aerodrome Forecast
Issued by NWS

Home | Current Version | Previous Version | Graphics & Text | Print | Product List | Glossary On
Versions: 1 2 3 4 5 6 7 8 9 10 11 12 13 14 15 16 17 18 19 20 21 22 23 24 25 26 27 28
832
FTUS43 KLOT 182059 AAA
TAFORD
TAF AMD
KORD 182059Z 1821/1924 07008KT P6SM SCT120 BKN250
     FM190600 11004KT P6SM VCSH BKN060 OVC100
      TEMPO 1907/1911 5SM -SHRA OVC030
     FM191100 09005KT P6SM VCSH SCT020 BKN035
     FM191500 08006KT P6SM BKN045=

USA.gov is the U.S. government's official web portal to all federal, state and local government web resources and services.